• Join FlightAware (Why Join?)
  • Login
  • US Flag 
06:08AM EDT


 

Airport Tracker/Info


-or-


 

Live Flight TrackerFlight Track Log ✈ N762NC ✈ 09-Oct-2013 ✈ KATL - KORD

Flight Track Log - Related Links

Times and Time Zones

All times are in EDT time to prevent confusion due to time zone crossing. See the N762NC flight status page for this flight to view local times or setup timezone preferences in your user account.

Time Position Orientation Groundspeed Altitude Reporting Facility
EDT Latitude Longitude Course Direction KTS MPH feet Rate Location/Type
05:54PM 33.6561 -84.3608 342° North 435 501 2,600  Level Atlanta Center
05:55PM 33.6981 -84.2936 53° Northeast 321 369 5,000 2,460 Climbing Atlanta Center
05:56PM 33.7689 -84.2936 360° North 266 306 7,600 2,400 Climbing Atlanta Center
05:57PM 34.0827 -84.5944 349° North  Level Estimated
05:57PM 33.8461 -84.3089 351° North 284 327 9,900  Level Atlanta Center
05:58PM 34.1989 -84.6077 355° North  Level FlightAware Approximate
05:58PM 33.9317 -84.3342 346° North 306 352 11,100  Level Atlanta Center
05:59PM 34.3151 -84.6210 355° North  Level FlightAware Approximate
05:59PM 34.0275 -84.3647 345° North 341 392 12,000  Level Atlanta Center
06:00PM 34.4263 -84.6639 342° North  Level Estimated
06:00PM 34.1297 -84.3900 348° North 365 420 14,500  Level Atlanta Center
06:01PM 34.2342 -84.4233 345° North 376 433 16,300 1,800 Climbing Atlanta Center
06:02PM 34.3425 -84.4489 349° North 383 441 18,100 1,680 Climbing Atlanta Center
06:03PM 34.4572 -84.4772 348° North 403 464 19,700 1,440 Climbing Atlanta Center
06:04PM 34.5572 -84.5053 347° North 403 464 21,000 1,500 Climbing Atlanta Center
06:05PM 34.6822 -84.5389 348° North 422 486 22,700 1,440 Climbing Atlanta Center
06:06PM 34.8011 -84.5725 347° North 427 491 23,900 1,260 Climbing Atlanta Center
06:07PM 34.9200 -84.6111 345° North 433 498 25,300 1,140 Climbing Atlanta Center
06:08PM 35.0428 -84.6450 347° North 433 498 26,200 1,020 Climbing Atlanta Center
06:09PM 35.1533 -84.6714 349° North 445 512 27,400 1,200 Climbing Atlanta Center
06:10PM 35.2783 -84.7078 347° North 450 518 28,700 1,320 Climbing Atlanta Center
06:11PM 35.3992 -84.7469 345° North 450 518 30,100 1,200 Climbing Atlanta Center
06:12PM 35.5219 -84.7761 349° North 450 518 31,200 900 Climbing Atlanta Center
06:13PM 35.6386 -84.8131 346° North 444 511 32,000 360 Climbing Atlanta Center
06:14PM 35.7572 -84.8447 348° North 444 511 32,000 360 Level Atlanta Center
06:15PM 35.8989 -84.8769 350° North 451 519 32,800 780 Climbing Atlanta Center
06:16PM 35.9703 -84.8986 346° North 449 517 33,300 720 Climbing Indianapolis Center
06:17PM 36.0833 -84.9297 347° North 436 502 34,000 300 Climbing Indianapolis Center
06:18PM 36.2025 -84.9592 349° North 437 503 34,000  Level Indianapolis Center
06:19PM 36.3189 -85.0106 340° North 443 510 34,000  Level Indianapolis Center
06:20PM 36.4603 -85.0647 343° North 441 507 34,000  Level Indianapolis Center
06:21PM 36.5750 -85.1203 339° North 442 509 34,000  Level Indianapolis Center
06:22PM 36.6875 -85.1817 336° Northwest 441 507 34,000  Level Indianapolis Center
06:23PM 36.8011 -85.2406 337° Northwest 443 510 34,000  Level Indianapolis Center
06:24PM 36.9156 -85.2978 338° Northwest 443 510 34,000  Level Indianapolis Center
06:25PM 37.0500 -85.3564 341° North 445 512 34,000  Level Indianapolis Center
06:26PM 37.1700 -85.3975 345° North 445 512 34,000  Level Indianapolis Center
06:27PM 37.2914 -85.4325 347° North 446 513 34,000  Level Indianapolis Center
06:28PM 37.4178 -85.4353 359° North 453 521 34,000  Level Indianapolis Center
06:29PM 37.5439 -85.4364 360° North 453 521 34,000  Level Indianapolis Center
06:30PM 37.6650 -85.4514 354° North 441 507 34,000  Level Indianapolis Center
06:31PM 37.8114 -85.4561 359° North 447 514 34,000 -480 Level Indianapolis Center
06:32PM 37.9439 -85.4597 359° North 462 532 33,100 -480 Descending Indianapolis Center
06:33PM 38.0739 -85.4731 355° North 469 540 33,100 -60 Level Indianapolis Center
06:34PM 38.2028 -85.4797 358° North 464 534 33,000 -60 Descending Indianapolis Center
06:35PM 38.3319 -85.4817 359° North 465 535 33,000  Level Indianapolis Center
06:36PM 38.4589 -85.4939 356° North 460 529 33,000  Level Indianapolis Center
06:37PM 38.5867 -85.5047 356° North 459 528 33,000  Level Indianapolis Center
06:39PM 38.7311 -85.5086 359° North 460 529 33,000  Level Indianapolis Center
06:40PM 38.8569 -85.5228 355° North 457 526 33,000 -180 Level Indianapolis Center
06:41PM 38.9833 -85.5344 356° North 456 525 32,700 -540 Descending Indianapolis Center
06:42PM 39.1133 -85.5383 359° North 468 539 31,900 -900 Descending Indianapolis Center
06:43PM 39.2636 -85.5778 349° North 463 533 30,900 -900 Descending Indianapolis Center
06:44PM 39.3886 -85.6153 347° North 462 532 30,100 -840 Descending Indianapolis Center
06:45PM 39.5169 -85.6108 North 465 535 29,200 -540 Descending Indianapolis Center
06:46PM 39.6436 -85.5986 North 463 533 29,000 -300 Descending Indianapolis Center
06:47PM 39.7892 -85.6008 359° North 443 510 28,600 -780 Descending Indianapolis Center
06:48PM 39.9128 -85.5981 North 445 512 27,400 -1,200 Descending Indianapolis Center
06:49PM 40.0394 -85.5875 North 455 524 26,200 -720 Descending Indianapolis Center
06:50PM 40.1653 -85.6119 352° North 458 527 26,000 -120 Descending Indianapolis Center
06:51PM 40.2886 -85.6353 352° North 454 522 26,000 -180 Level Indianapolis Center
06:52PM 40.4372 -85.6672 351° North 454 522 25,700 -480 Descending Indianapolis Center
06:53PM 40.5614 -85.7036 347° North 459 528 25,100 -660 Descending Indianapolis Center
06:54PM 40.6667 -85.8081 323° Northwest 473 544 24,400 -660 Descending Chicago Center
06:55PM 40.7283 -85.9586 298° West 474 545 23,900 -540 Descending Chicago Center
06:56PM 40.7972 -86.1008 303° West 465 535 23,300 -660 Descending Chicago Center
06:57PM 40.8711 -86.2347 306° West 454 522 22,600 -780 Descending Chicago Center
06:58PM 40.9497 -86.3628 309° West 449 517 21,700 -900 Descending Chicago Center
06:59PM 41.0256 -86.4933 308° West 448 516 20,800 -1,020 Descending Chicago Center
07:00PM 41.1167 -86.6528 307° West 451 519 19,700 -1,080 Descending Chicago Center
07:01PM 41.1917 -86.7708 310° West 447 514 18,600 -1,800 Descending Chicago Center
07:02PM 41.2714 -86.8858 313° West 427 491 16,000 -2,760 Descending Chicago Center
07:03PM 41.3422 -87.0000 310° West 410 472 13,000 -2,460 Descending Chicago Center
07:04PM 41.4275 -87.1247 312° West 385 443 11,000 -1,020 Descending Chicago Center
07:05PM 41.4919 -87.2250 311° West 365 420 11,000 -240 Level Chicago Center
07:06PM 41.5486 -87.3333 305° West 366 421 10,600 -480 Descending Chicago Center
07:07PM 41.5839 -87.4544 291° West 358 412 10,100 -300 Descending Chicago Center
07:08PM 41.6625 -87.5731 312° West 358 412 10,000 -60 Descending Chicago Center
07:09PM 41.7389 -87.6581 320° Northwest 362 417 10,000 -60 Level Chicago Center
07:11PM 41.8128 -87.7378 321° Northwest 347 399 9,900 -780 Descending Chicago Center
07:12PM 41.8600 -87.8208 307° West 290 334 8,400 -1,440 Descending Chicago Center
07:13PM 41.8978 -87.9100 300° West 280 322 7,000 -660 Descending Chicago Center
07:14PM 41.9500 -88.0167 303° West 261 300 7,000 -540 Level Chicago TRACON
07:15PM 42.0000 -88.0833 315° West 240 276 5,900 -1,380 Descending Chicago TRACON
07:16PM 42.0500 -88.1333 323° Northwest 247 284 4,300 -1,380 Descending Chicago TRACON
07:17PM 42.0908 -88.0911 37° Northeast 234 269 3,300 -840 Descending Chicago Center
07:18PM 42.0708 -88.0242 112° Southeast 201 231 2,700 -780 Descending Chicago Center
07:19PM 42.0333 -87.9833 141° Southeast 129 148 1,800 -780 Descending Chicago TRACON
07:20PM 42.0167 -87.9500 124° Southeast 131 151 1,200 -600 Descending Chicago TRACON